Altay — V7XK6 — position and weather

sailwx.info

Track history (hours):
 
Tides and Currents Weather Stations Pressure Air Temp Water Temp Dewpoint Dewpoint Depression Visibility Wind Speed Wind Dir Waves Ship Positions

Altay

Last reported at 2018-Feb-24 07:23 UTC. Time now 2018-Feb-24 10:30 UTC.
Position N 37°25' E 025°55'.

Length 120 m; draft 6.5 m.

Type: Cargo ship. MMSI: 538004502.

Date/timePositionNaut miles runAvg speedWind from/ knotsBaromVisibWave heightAir tempDewpointWater temp
2018-Feb-24 07:23N 37°25' E 025°55'3 8.9
2018-Feb-24 07:00N 37°28' E 025°54'4 8.4
2018-Feb-24 06:30N 37°31' E 025°51'12 8.4
2018-Feb-24 05:02N 37°43' E 025°48'0 8.7
2018-Feb-24 04:59N 37°44' E 025°48'348 6.9
2018-Feb-22 02:36N 42°43' E 029°41'1 9.0
2018-Feb-22 02:28N 42°44' E 029°41'4 9.0
2018-Feb-22 02:00N 42°48' E 029°43'6 8.8
2018-Feb-22 01:16N 42°54' E 029°46'3 8.8
2018-Feb-22 00:53N 42°58' E 029°47'207 8.7
2018-Feb-21 00:56N 46°19' E 030°55'4 8.7
2018-Feb-21 00:30N 46°23' E 030°55'4 8.7
2018-Feb-21 00:00N 46°28' E 030°55'5 8.4
2018-Feb-20 23:27N 46°32' E 030°56'24 8.2
2018-Feb-20 20:28N 46°35' E 031°31'4 8.5
2018-Feb-20 20:00N 46°35' E 031°37'4 8.7
2018-Feb-20 19:30N 46°36' E 031°43'5 8.5
2018-Feb-20 18:58N 46°36' E 031°50'4 8.4
2018-Feb-20 18:30N 46°38' E 031°55'4 8.4
2018-Feb-20 18:00N 46°42' E 031°56'4 7.9
2018-Feb-20 17:30N 46°46' E 031°53'4 8.1
2018-Feb-20 17:00N 46°50' E 031°55'5 9.1
2018-Feb-20 16:30N 46°53' E 031°60'3 6.3
2018-Feb-20 16:00N 46°56' E 031°60'1 1.7
2018-Feb-20 15:28N 46°57' E 031°58'0 0.0
2018-Feb-20 14:58N 46°57' E 031°58'0 0.0
2018-Feb-20 14:28N 46°57' E 031°58'0 0.0
2018-Feb-20 13:55N 46°57' E 031°58'0 0.0
2018-Feb-20 13:25N 46°57' E 031°58'0 0.0
2018-Feb-20 12:58N 46°57' E 031°58'0 0.0
2018-Feb-20 12:25N 46°57' E 031°58'0 0.0
2018-Feb-20 11:49N 46°57' E 031°58'0 0.0
2018-Feb-20 11:25N 46°57' E 031°58'0 0.0
2018-Feb-20 10:58N 46°57' E 031°58'0 0.0
2018-Feb-20 10:25N 46°57' E 031°58'0 0.0
2018-Feb-20 09:58N 46°57' E 031°58'0 0.0
2018-Feb-20 09:28N 46°57' E 031°58'0 0.0
2018-Feb-20 08:55N 46°57' E 031°58'0 0.0
2018-Feb-20 08:28N 46°57' E 031°58'0 0.0
2018-Feb-20 07:58N 46°57' E 031°58'0 0.0
2018-Feb-20 07:28N 46°57' E 031°58'0 0.0
2018-Feb-20 06:58N 46°57' E 031°58'0 0.0
2018-Feb-20 06:28N 46°57' E 031°58'0 0.0
2018-Feb-20 05:58N 46°57' E 031°58'0 0.0
2018-Feb-20 05:28N 46°57' E 031°58'0 0.0
2018-Feb-20 04:58N 46°57' E 031°58'0 0.0
2018-Feb-20 04:28N 46°57' E 031°58'0 0.0
2018-Feb-20 03:58N 46°57' E 031°58'0 0.0
2018-Feb-20 03:28N 46°57' E 031°58'0 0.0
2018-Feb-20 02:58N 46°57' E 031°58'0 0.0
2018-Feb-20 02:28N 46°57' E 031°58'0 0.0
2018-Feb-20 01:58N 46°57' E 031°58'0 0.0
2018-Feb-20 01:28N 46°57' E 031°58'0 0.0
2018-Feb-20 00:58N 46°57' E 031°58'0 0.0
2018-Feb-20 00:28N 46°57' E 031°58'0 0.0
2018-Feb-19 23:55N 46°57' E 031°58'0 0.0
2018-Feb-19 23:28N 46°57' E 031°58'0 0.0
2018-Feb-19 22:58N 46°57' E 031°58'0 0.0
2018-Feb-19 22:28N 46°57' E 031°58'0 0.0
2018-Feb-19 21:58N 46°57' E 031°58'0 0.0
2018-Feb-19 21:25N 46°57' E 031°58'0 0.0
2018-Feb-19 20:58N 46°57' E 031°58'0 0.0
2018-Feb-19 20:28N 46°57' E 031°58'0 0.0
2018-Feb-19 19:58N 46°57' E 031°58'0 0.0
2018-Feb-19 19:28N 46°57' E 031°58'0 0.0
2018-Feb-19 18:58N 46°57' E 031°58'0 0.0
2018-Feb-19 18:28N 46°57' E 031°58'0 0.0
2018-Feb-19 17:58N 46°57' E 031°58'0 0.0
2018-Feb-19 17:31N 46°57' E 031°58'0 0.0
2018-Feb-19 16:58N 46°57' E 031°58'0 0.0
2018-Feb-19 16:28N 46°57' E 031°58'0 0.0
2018-Feb-19 16:01N 46°57' E 031°58'0 0.0
2018-Feb-19 15:28N 46°57' E 031°58'0 0.0
2018-Feb-19 14:55N 46°57' E 031°58'0 0.0
2018-Feb-19 14:28N 46°57' E 031°58'0 0.0
2018-Feb-19 14:01N 46°57' E 031°58'0 0.0
2018-Feb-19 13:28N 46°57' E 031°58'0 0.0
2018-Feb-19 12:58N 46°57' E 031°58'0 0.0
2018-Feb-19 12:28N 46°57' E 031°58'0 0.0
2018-Feb-19 12:01N 46°57' E 031°58'0 0.0
2018-Feb-19 11:28N 46°57' E 031°58'0 0.0
2018-Feb-19 10:58N 46°57' E 031°58'0 0.0
2018-Feb-19 10:31N 46°57' E 031°58'0 0.0
2018-Feb-19 10:01N 46°57' E 031°58'0 0.0
2018-Feb-19 09:28N 46°57' E 031°58'0 0.0
2018-Feb-19 09:01N 46°57' E 031°58'0 0.0
2018-Feb-19 08:25N 46°57' E 031°58'0 0.0
2018-Feb-19 07:58N 46°57' E 031°58'0 0.0
2018-Feb-19 07:31N 46°57' E 031°58'0 0.0
2018-Feb-19 07:01N 46°57' E 031°58'0 0.0
2018-Feb-19 06:31N 46°57' E 031°58'0 0.0
2018-Feb-19 05:58N 46°57' E 031°58'0 0.0
2018-Feb-19 05:31N 46°57' E 031°58'0 0.0
2018-Feb-19 04:58N 46°57' E 031°58'0 0.0
2018-Feb-19 04:31N 46°57' E 031°58'0 0.0
2018-Feb-19 03:58N 46°57' E 031°58'0 0.0
2018-Feb-19 03:28N 46°57' E 031°58'0 0.0
2018-Feb-19 03:01N 46°57' E 031°58'0 0.0
2018-Feb-19 02:31N 46°57' E 031°58'0 0.0
2018-Feb-19 02:01N 46°57' E 031°58'0 0.0
2018-Feb-19 01:31N 46°57' E 031°58'0 0.0
2018-Feb-19 01:01N 46°57' E 031°58'0 0.0
2018-Feb-19 00:31N 46°57' E 031°58'0 0.0
2018-Feb-19 00:01N 46°57' E 031°58'0 0.0
2018-Feb-18 23:31N 46°57' E 031°58'0 0.0
2018-Feb-18 23:01N 46°57' E 031°58'0 0.0
2018-Feb-18 22:31N 46°57' E 031°58'0 0.0
2018-Feb-18 22:01N 46°57' E 031°58'0 0.0
2018-Feb-18 21:31N 46°57' E 031°58'0 0.0
2018-Feb-18 21:01N 46°57' E 031°58'0 0.0
2018-Feb-18 20:31N 46°57' E 031°58'0 0.0
2018-Feb-18 20:01N 46°57' E 031°58'0 0.0
2018-Feb-18 19:31N 46°57' E 031°58'0 0.0
2018-Feb-18 19:01N 46°57' E 031°58'0 0.0
2018-Feb-18 18:31N 46°57' E 031°58'0 0.0
2018-Feb-18 18:01N 46°57' E 031°58'0 0.0
2018-Feb-18 17:31N 46°57' E 031°58'0 0.0
2018-Feb-18 17:01N 46°57' E 031°58'0 0.0
2018-Feb-18 16:31N 46°57' E 031°58'0 0.0
2018-Feb-18 16:01N 46°57' E 031°58'0 0.0
2018-Feb-18 15:30N 46°57' E 031°58'0 0.0
2018-Feb-18 15:01N 46°57' E 031°58'0 0.0
2018-Feb-18 14:31N 46°57' E 031°58'0 0.0
2018-Feb-18 14:01N 46°57' E 031°58'0 0.0
2018-Feb-18 13:31N 46°57' E 031°58'0 0.0
2018-Feb-18 13:01N 46°57' E 031°58'0 0.0
2018-Feb-18 12:30N 46°57' E 031°58'0 0.0
2018-Feb-18 12:00N 46°57' E 031°58'0 0.0
2018-Feb-18 11:27N 46°57' E 031°58'0 0.0
2018-Feb-18 11:00N 46°57' E 031°58'0 0.0
2018-Feb-18 10:30N 46°57' E 031°58'0 0.0
2018-Feb-18 10:00N 46°57' E 031°58'0 0.0
2018-Feb-18 09:30N 46°57' E 031°58'0 0.0
2018-Feb-18 09:00N 46°57' E 031°58'0 0.0
2018-Feb-18 08:30N 46°57' E 031°58'0 0.0
2018-Feb-18 08:00N 46°57' E 031°58'0 0.0
2018-Feb-18 07:30N 46°57' E 031°58'0 0.0
2018-Feb-18 07:00N 46°57' E 031°58'0 0.0
2018-Feb-18 06:30N 46°57' E 031°58'0 0.0
2018-Feb-18 06:00N 46°57' E 031°58'0 0.0
2018-Feb-18 05:30N 46°57' E 031°58'0 0.0
2018-Feb-18 05:00N 46°57' E 031°58'0 0.0
2018-Feb-18 04:30N 46°57' E 031°58'0 0.0
2018-Feb-18 04:01N 46°57' E 031°58'0 0.0
2018-Feb-18 03:30N 46°57' E 031°58'0 0.0
2018-Feb-18 03:00N 46°57' E 031°58'0 0.0
2018-Feb-18 02:30N 46°57' E 031°58'0 0.0
2018-Feb-18 01:57N 46°57' E 031°58'0 0.0
2018-Feb-18 01:30N 46°57' E 031°58'0 0.0
2018-Feb-18 01:00N 46°57' E 031°58'0 0.0
2018-Feb-18 00:30N 46°57' E 031°58'0 0.0
2018-Feb-18 00:00N 46°57' E 031°58'0 0.0
2018-Feb-17 23:30N 46°57' E 031°58'0 0.0
2018-Feb-17 23:00N 46°57' E 031°58'0 0.0
2018-Feb-17 22:30N 46°57' E 031°58'0 0.0
2018-Feb-17 22:00N 46°57' E 031°58'0 0.0
2018-Feb-17 21:30N 46°57' E 031°58'0 0.0
2018-Feb-17 21:00N 46°57' E 031°58'0 0.0
2018-Feb-17 20:30N 46°57' E 031°58'0 0.0
2018-Feb-17 20:00N 46°57' E 031°58'0 0.0
2018-Feb-17 19:30N 46°57' E 031°58'0 0.0
2018-Feb-17 19:00N 46°57' E 031°58'0 0.0
2018-Feb-17 18:30N 46°57' E 031°58'0 0.0
2018-Feb-17 18:00N 46°57' E 031°58'0 0.0
2018-Feb-17 17:30N 46°57' E 031°58'0 0.0
2018-Feb-17 17:00N 46°57' E 031°58'0 0.0
2018-Feb-17 16:30N 46°57' E 031°58'0 0.0
2018-Feb-17 16:00N 46°57' E 031°58'0 0.0
2018-Feb-17 15:30N 46°57' E 031°58'0 0.0
2018-Feb-17 15:00N 46°57' E 031°58'0 0.0
2018-Feb-17 14:30N 46°57' E 031°58'0 0.0
2018-Feb-17 14:00N 46°57' E 031°58'0 0.0
2018-Feb-17 13:30N 46°57' E 031°58'0 0.0
2018-Feb-17 13:00N 46°57' E 031°58'0 0.0
2018-Feb-17 12:30N 46°57' E 031°58'0 0.0
2018-Feb-17 12:00N 46°57' E 031°58'0 0.0
2018-Feb-17 11:30N 46°57' E 031°58'0 0.0
2018-Feb-17 11:00N 46°57' E 031°58'0 0.0
2018-Feb-17 10:30N 46°57' E 031°58'0 0.0
2018-Feb-17 09:57N 46°57' E 031°58'0 0.0
2018-Feb-17 09:30N 46°57' E 031°58'0 0.0
2018-Feb-17 09:00N 46°57' E 031°58'0 0.0
2018-Feb-17 08:30N 46°57' E 031°58'0 0.0
2018-Feb-17 08:00N 46°57' E 031°58'0 0.0
2018-Feb-17 07:30N 46°57' E 031°58'0 0.0
2018-Feb-17 07:00N 46°57' E 031°58'0 0.0
2018-Feb-17 06:30N 46°57' E 031°58'0 0.0
2018-Feb-17 06:00N 46°57' E 031°58'0 0.0
2018-Feb-17 05:30N 46°57' E 031°58'0 0.0
2018-Feb-17 05:00N 46°57' E 031°58'0 0.0
2018-Feb-17 04:30N 46°57' E 031°58'0 0.0
2018-Feb-17 04:00N 46°57' E 031°58'0 0.0
2018-Feb-17 03:30N 46°57' E 031°58'0 0.0
2018-Feb-17 03:00N 46°57' E 031°58'0 0.0
2018-Feb-17 02:30N 46°57' E 031°58'0 0.0
2018-Feb-17 02:00N 46°57' E 031°58'0 0.0
2018-Feb-17 01:30N 46°57' E 031°58'0 0.0
2018-Feb-17 01:00N 46°57' E 031°58'0 0.0
2018-Feb-17 00:30N 46°57' E 031°58'0 0.0
2018-Feb-17 00:00N 46°57' E 031°58'0 0.0
2018-Feb-16 23:30N 46°57' E 031°58'0 0.0
2018-Feb-16 23:00N 46°57' E 031°58'0 0.0
2018-Feb-16 22:30N 46°57' E 031°58'0 0.0
2018-Feb-16 22:00N 46°57' E 031°58'0 0.0
2018-Feb-16 21:30N 46°57' E 031°58'0 0.0
2018-Feb-16 21:00N 46°57' E 031°58'0 0.0
2018-Feb-16 20:30N 46°57' E 031°58'0 0.0
2018-Feb-16 20:00N 46°57' E 031°58'0 0.0
2018-Feb-16 19:30N 46°57' E 031°58'0 0.0
2018-Feb-16 19:00N 46°57' E 031°58'0 0.0
2018-Feb-16 18:30N 46°57' E 031°58'0 0.0
2018-Feb-16 18:00N 46°57' E 031°58'0 0.0
2018-Feb-16 17:30N 46°57' E 031°58'0 0.0
2018-Feb-16 17:00N 46°57' E 031°58'0 0.0
2018-Feb-16 16:24N 46°57' E 031°58'0 0.0
2018-Feb-16 16:00N 46°57' E 031°58'0 0.0
2018-Feb-16 15:30N 46°57' E 031°58'0 0.0
2018-Feb-16 15:00N 46°57' E 031°58'0 0.0
2018-Feb-16 14:30N 46°57' E 031°58'0 0.0
2018-Feb-16 14:00N 46°57' E 031°58'0 0.0
2018-Feb-16 13:30N 46°57' E 031°58'1 2.9
2018-Feb-16 13:00N 46°56' E 032°00'4 7.3
2018-Feb-16 12:30N 46°53' E 031°59'5 9.7
2018-Feb-16 12:00N 46°49' E 031°54'4 8.5
2018-Feb-16 11:30N 46°45' E 031°54'4 8.6
2018-Feb-16 11:00N 46°41' E 031°56'4 8.8
2018-Feb-16 10:30N 46°37' E 031°52'5 9.2
2018-Feb-16 10:00N 46°36' E 031°46'6 9.1
2018-Feb-16 09:18N 46°35' E 031°36'3 9.1
2018-Feb-16 09:00N 46°35' E 031°33'4 6.9
2018-Feb-16 08:30N 46°35' E 031°28'5 6.6
2018-Feb-16 07:47N 46°35' E 031°21'13 7.9
2018-Feb-16 06:07N 46°34' E 031°02'1 6.0
2018-Feb-16 06:00N 46°34' E 031°01'3 6.1
2018-Feb-16 05:27N 46°31' E 030°57'3 6.4
2018-Feb-16 05:00N 46°29' E 030°57'5 6.3
2018-Feb-16 04:17N 46°25' E 031°00'  
Track history (hours):
 
Tides and Currents Weather Stations Pressure Air Temp Water Temp Dewpoint Dewpoint Depression Visibility Wind Speed Wind Dir Waves Ship Positions

Altay

Last reported at 2018-Feb-24 07:23 UTC. Time now 2018-Feb-24 10:30 UTC.
Position N 37°25' E 025°55'.

Length 120 m; draft 6.5 m.

Type: Cargo ship. MMSI: 538004502.

Date/timePositionNaut miles runAvg speedWind from/ knotsBaromVisibWave heightAir tempDewpointWater temp
2018-Feb-24 07:23N 37°25' E 025°55'3 8.9
2018-Feb-24 07:00N 37°28' E 025°54'4 8.4
2018-Feb-24 06:30N 37°31' E 025°51'12 8.4
2018-Feb-24 05:02N 37°43' E 025°48'0 8.7
2018-Feb-24 04:59N 37°44' E 025°48'348 6.9
2018-Feb-22 02:36N 42°43' E 029°41'1 9.0
2018-Feb-22 02:28N 42°44' E 029°41'4 9.0
2018-Feb-22 02:00N 42°48' E 029°43'6 8.8
2018-Feb-22 01:16N 42°54' E 029°46'3 8.8
2018-Feb-22 00:53N 42°58' E 029°47'207 8.7
2018-Feb-21 00:56N 46°19' E 030°55'4 8.7
2018-Feb-21 00:30N 46°23' E 030°55'4 8.7
2018-Feb-21 00:00N 46°28' E 030°55'5 8.4
2018-Feb-20 23:27N 46°32' E 030°56'24 8.2
2018-Feb-20 20:28N 46°35' E 031°31'4 8.5
2018-Feb-20 20:00N 46°35' E 031°37'4 8.7
2018-Feb-20 19:30N 46°36' E 031°43'5 8.5
2018-Feb-20 18:58N 46°36' E 031°50'4 8.4
2018-Feb-20 18:30N 46°38' E 031°55'4 8.4
2018-Feb-20 18:00N 46°42' E 031°56'4 7.9
2018-Feb-20 17:30N 46°46' E 031°53'4 8.1
2018-Feb-20 17:00N 46°50' E 031°55'5 9.1
2018-Feb-20 16:30N 46°53' E 031°60'3 6.3
2018-Feb-20 16:00N 46°56' E 031°60'1 1.7
2018-Feb-20 15:28N 46°57' E 031°58'0 0.0
2018-Feb-20 14:58N 46°57' E 031°58'0 0.0
2018-Feb-20 14:28N 46°57' E 031°58'0 0.0
2018-Feb-20 13:55N 46°57' E 031°58'0 0.0
2018-Feb-20 13:25N 46°57' E 031°58'0 0.0
2018-Feb-20 12:58N 46°57' E 031°58'0 0.0
2018-Feb-20 12:25N 46°57' E 031°58'0 0.0
2018-Feb-20 11:49N 46°57' E 031°58'0 0.0
2018-Feb-20 11:25N 46°57' E 031°58'0 0.0
2018-Feb-20 10:58N 46°57' E 031°58'0 0.0
2018-Feb-20 10:25N 46°57' E 031°58'0 0.0
2018-Feb-20 09:58N 46°57' E 031°58'0 0.0
2018-Feb-20 09:28N 46°57' E 031°58'0 0.0
2018-Feb-20 08:55N 46°57' E 031°58'0 0.0
2018-Feb-20 08:28N 46°57' E 031°58'0 0.0
2018-Feb-20 07:58N 46°57' E 031°58'0 0.0
2018-Feb-20 07:28N 46°57' E 031°58'0 0.0
2018-Feb-20 06:58N 46°57' E 031°58'0 0.0
2018-Feb-20 06:28N 46°57' E 031°58'0 0.0
2018-Feb-20 05:58N 46°57' E 031°58'0 0.0
2018-Feb-20 05:28N 46°57' E 031°58'0 0.0
2018-Feb-20 04:58N 46°57' E 031°58'0 0.0
2018-Feb-20 04:28N 46°57' E 031°58'0 0.0
2018-Feb-20 03:58N 46°57' E 031°58'0 0.0
2018-Feb-20 03:28N 46°57' E 031°58'0 0.0
2018-Feb-20 02:58N 46°57' E 031°58'0 0.0
2018-Feb-20 02:28N 46°57' E 031°58'0 0.0
2018-Feb-20 01:58N 46°57' E 031°58'0 0.0
2018-Feb-20 01:28N 46°57' E 031°58'0 0.0
2018-Feb-20 00:58N 46°57' E 031°58'0 0.0
2018-Feb-20 00:28N 46°57' E 031°58'0 0.0
2018-Feb-19 23:55N 46°57' E 031°58'0 0.0
2018-Feb-19 23:28N 46°57' E 031°58'0 0.0
2018-Feb-19 22:58N 46°57' E 031°58'0 0.0
2018-Feb-19 22:28N 46°57' E 031°58'0 0.0
2018-Feb-19 21:58N 46°57' E 031°58'0 0.0
2018-Feb-19 21:25N 46°57' E 031°58'0 0.0
2018-Feb-19 20:58N 46°57' E 031°58'0 0.0
2018-Feb-19 20:28N 46°57' E 031°58'0 0.0
2018-Feb-19 19:58N 46°57' E 031°58'0 0.0
2018-Feb-19 19:28N 46°57' E 031°58'0 0.0
2018-Feb-19 18:58N 46°57' E 031°58'0 0.0
2018-Feb-19 18:28N 46°57' E 031°58'0 0.0
2018-Feb-19 17:58N 46°57' E 031°58'0 0.0
2018-Feb-19 17:31N 46°57' E 031°58'0 0.0
2018-Feb-19 16:58N 46°57' E 031°58'0 0.0
2018-Feb-19 16:28N 46°57' E 031°58'0 0.0
2018-Feb-19 16:01N 46°57' E 031°58'0 0.0
2018-Feb-19 15:28N 46°57' E 031°58'0 0.0
2018-Feb-19 14:55N 46°57' E 031°58'0 0.0
2018-Feb-19 14:28N 46°57' E 031°58'0 0.0
2018-Feb-19 14:01N 46°57' E 031°58'0 0.0
2018-Feb-19 13:28N 46°57' E 031°58'0 0.0
2018-Feb-19 12:58N 46°57' E 031°58'0 0.0
2018-Feb-19 12:28N 46°57' E 031°58'0 0.0
2018-Feb-19 12:01N 46°57' E 031°58'0 0.0
2018-Feb-19 11:28N 46°57' E 031°58'0 0.0
2018-Feb-19 10:58N 46°57' E 031°58'0 0.0
2018-Feb-19 10:31N 46°57' E 031°58'0 0.0
2018-Feb-19 10:01N 46°57' E 031°58'0 0.0
2018-Feb-19 09:28N 46°57' E 031°58'0 0.0
2018-Feb-19 09:01N 46°57' E 031°58'0 0.0
2018-Feb-19 08:25N 46°57' E 031°58'0 0.0
2018-Feb-19 07:58N 46°57' E 031°58'0 0.0
2018-Feb-19 07:31N 46°57' E 031°58'0 0.0
2018-Feb-19 07:01N 46°57' E 031°58'0 0.0
2018-Feb-19 06:31N 46°57' E 031°58'0 0.0
2018-Feb-19 05:58N 46°57' E 031°58'0 0.0
2018-Feb-19 05:31N 46°57' E 031°58'0 0.0
2018-Feb-19 04:58N 46°57' E 031°58'0 0.0
2018-Feb-19 04:31N 46°57' E 031°58'0 0.0
2018-Feb-19 03:58N 46°57' E 031°58'0 0.0
2018-Feb-19 03:28N 46°57' E 031°58'0 0.0
2018-Feb-19 03:01N 46°57' E 031°58'0 0.0
2018-Feb-19 02:31N 46°57' E 031°58'0 0.0
2018-Feb-19 02:01N 46°57' E 031°58'0 0.0
2018-Feb-19 01:31N 46°57' E 031°58'0 0.0
2018-Feb-19 01:01N 46°57' E 031°58'0 0.0
2018-Feb-19 00:31N 46°57' E 031°58'0 0.0
2018-Feb-19 00:01N 46°57' E 031°58'0 0.0
2018-Feb-18 23:31N 46°57' E 031°58'0 0.0
2018-Feb-18 23:01N 46°57' E 031°58'0 0.0
2018-Feb-18 22:31N 46°57' E 031°58'0 0.0
2018-Feb-18 22:01N 46°57' E 031°58'0 0.0
2018-Feb-18 21:31N 46°57' E 031°58'0 0.0
2018-Feb-18 21:01N 46°57' E 031°58'0 0.0
2018-Feb-18 20:31N 46°57' E 031°58'0 0.0
2018-Feb-18 20:01N 46°57' E 031°58'0 0.0
2018-Feb-18 19:31N 46°57' E 031°58'0 0.0
2018-Feb-18 19:01N 46°57' E 031°58'0 0.0
2018-Feb-18 18:31N 46°57' E 031°58'0 0.0
2018-Feb-18 18:01N 46°57' E 031°58'0 0.0
2018-Feb-18 17:31N 46°57' E 031°58'0 0.0
2018-Feb-18 17:01N 46°57' E 031°58'0 0.0
2018-Feb-18 16:31N 46°57' E 031°58'0 0.0
2018-Feb-18 16:01N 46°57' E 031°58'0 0.0
2018-Feb-18 15:30N 46°57' E 031°58'0 0.0
2018-Feb-18 15:01N 46°57' E 031°58'0 0.0
2018-Feb-18 14:31N 46°57' E 031°58'0 0.0
2018-Feb-18 14:01N 46°57' E 031°58'0 0.0
2018-Feb-18 13:31N 46°57' E 031°58'0 0.0
2018-Feb-18 13:01N 46°57' E 031°58'0 0.0
2018-Feb-18 12:30N 46°57' E 031°58'0 0.0
2018-Feb-18 12:00N 46°57' E 031°58'0 0.0
2018-Feb-18 11:27N 46°57' E 031°58'0 0.0
2018-Feb-18 11:00N 46°57' E 031°58'0 0.0
2018-Feb-18 10:30N 46°57' E 031°58'0 0.0
2018-Feb-18 10:00N 46°57' E 031°58'0 0.0
2018-Feb-18 09:30N 46°57' E 031°58'0 0.0
2018-Feb-18 09:00N 46°57' E 031°58'0 0.0
2018-Feb-18 08:30N 46°57' E 031°58'0 0.0
2018-Feb-18 08:00N 46°57' E 031°58'0 0.0
2018-Feb-18 07:30N 46°57' E 031°58'0 0.0
2018-Feb-18 07:00N 46°57' E 031°58'0 0.0
2018-Feb-18 06:30N 46°57' E 031°58'0 0.0
2018-Feb-18 06:00N 46°57' E 031°58'0 0.0
2018-Feb-18 05:30N 46°57' E 031°58'0 0.0
2018-Feb-18 05:00N 46°57' E 031°58'0 0.0
2018-Feb-18 04:30N 46°57' E 031°58'0 0.0
2018-Feb-18 04:01N 46°57' E 031°58'0 0.0
2018-Feb-18 03:30N 46°57' E 031°58'0 0.0
2018-Feb-18 03:00N 46°57' E 031°58'0 0.0
2018-Feb-18 02:30N 46°57' E 031°58'0 0.0
2018-Feb-18 01:57N 46°57' E 031°58'0 0.0
2018-Feb-18 01:30N 46°57' E 031°58'0 0.0
2018-Feb-18 01:00N 46°57' E 031°58'0 0.0
2018-Feb-18 00:30N 46°57' E 031°58'0 0.0
2018-Feb-18 00:00N 46°57' E 031°58'0 0.0
2018-Feb-17 23:30N 46°57' E 031°58'0 0.0
2018-Feb-17 23:00N 46°57' E 031°58'0 0.0
2018-Feb-17 22:30N 46°57' E 031°58'0 0.0
2018-Feb-17 22:00N 46°57' E 031°58'0 0.0
2018-Feb-17 21:30N 46°57' E 031°58'0 0.0
2018-Feb-17 21:00N 46°57' E 031°58'0 0.0
2018-Feb-17 20:30N 46°57' E 031°58'0 0.0
2018-Feb-17 20:00N 46°57' E 031°58'0 0.0
2018-Feb-17 19:30N 46°57' E 031°58'0 0.0
2018-Feb-17 19:00N 46°57' E 031°58'0 0.0
2018-Feb-17 18:30N 46°57' E 031°58'0 0.0
2018-Feb-17 18:00N 46°57' E 031°58'0 0.0
2018-Feb-17 17:30N 46°57' E 031°58'0 0.0
2018-Feb-17 17:00N 46°57' E 031°58'0 0.0
2018-Feb-17 16:30N 46°57' E 031°58'0 0.0
2018-Feb-17 16:00N 46°57' E 031°58'0 0.0
2018-Feb-17 15:30N 46°57' E 031°58'0 0.0
2018-Feb-17 15:00N 46°57' E 031°58'0 0.0
2018-Feb-17 14:30N 46°57' E 031°58'0 0.0
2018-Feb-17 14:00N 46°57' E 031°58'0 0.0
2018-Feb-17 13:30N 46°57' E 031°58'0 0.0
2018-Feb-17 13:00N 46°57' E 031°58'0 0.0
2018-Feb-17 12:30N 46°57' E 031°58'0 0.0
2018-Feb-17 12:00N 46°57' E 031°58'0 0.0
2018-Feb-17 11:30N 46°57' E 031°58'0 0.0
2018-Feb-17 11:00N 46°57' E 031°58'0 0.0
2018-Feb-17 10:30N 46°57' E 031°58'0 0.0
2018-Feb-17 09:57N 46°57' E 031°58'0 0.0
2018-Feb-17 09:30N 46°57' E 031°58'0 0.0
2018-Feb-17 09:00N 46°57' E 031°58'0 0.0
2018-Feb-17 08:30N 46°57' E 031°58'0 0.0
2018-Feb-17 08:00N 46°57' E 031°58'0 0.0
2018-Feb-17 07:30N 46°57' E 031°58'0 0.0
2018-Feb-17 07:00N 46°57' E 031°58'0 0.0
2018-Feb-17 06:30N 46°57' E 031°58'0 0.0
2018-Feb-17 06:00N 46°57' E 031°58'0 0.0
2018-Feb-17 05:30N 46°57' E 031°58'0 0.0
2018-Feb-17 05:00N 46°57' E 031°58'0 0.0
2018-Feb-17 04:30N 46°57' E 031°58'0 0.0
2018-Feb-17 04:00N 46°57' E 031°58'0 0.0
2018-Feb-17 03:30N 46°57' E 031°58'0 0.0
2018-Feb-17 03:00N 46°57' E 031°58'0 0.0
2018-Feb-17 02:30N 46°57' E 031°58'0 0.0
2018-Feb-17 02:00N 46°57' E 031°58'0 0.0
2018-Feb-17 01:30N 46°57' E 031°58'0 0.0
2018-Feb-17 01:00N 46°57' E 031°58'0 0.0
2018-Feb-17 00:30N 46°57' E 031°58'0 0.0
2018-Feb-17 00:00N 46°57' E 031°58'0 0.0
2018-Feb-16 23:30N 46°57' E 031°58'0 0.0
2018-Feb-16 23:00N 46°57' E 031°58'0 0.0
2018-Feb-16 22:30N 46°57' E 031°58'0 0.0
2018-Feb-16 22:00N 46°57' E 031°58'0 0.0
2018-Feb-16 21:30N 46°57' E 031°58'0 0.0
2018-Feb-16 21:00N 46°57' E 031°58'0 0.0
2018-Feb-16 20:30N 46°57' E 031°58'0 0.0
2018-Feb-16 20:00N 46°57' E 031°58'0 0.0
2018-Feb-16 19:30N 46°57' E 031°58'0 0.0
2018-Feb-16 19:00N 46°57' E 031°58'0 0.0
2018-Feb-16 18:30N 46°57' E 031°58'0 0.0
2018-Feb-16 18:00N 46°57' E 031°58'0 0.0
2018-Feb-16 17:30N 46°57' E 031°58'0 0.0
2018-Feb-16 17:00N 46°57' E 031°58'0 0.0
2018-Feb-16 16:24N 46°57' E 031°58'0 0.0
2018-Feb-16 16:00N 46°57' E 031°58'0 0.0
2018-Feb-16 15:30N 46°57' E 031°58'0 0.0
2018-Feb-16 15:00N 46°57' E 031°58'0 0.0
2018-Feb-16 14:30N 46°57' E 031°58'0 0.0
2018-Feb-16 14:00N 46°57' E 031°58'0 0.0
2018-Feb-16 13:30N 46°57' E 031°58'1 2.9
2018-Feb-16 13:00N 46°56' E 032°00'4 7.3
2018-Feb-16 12:30N 46°53' E 031°59'5 9.7
2018-Feb-16 12:00N 46°49' E 031°54'4 8.5
2018-Feb-16 11:30N 46°45' E 031°54'4 8.6
2018-Feb-16 11:00N 46°41' E 031°56'4 8.8
2018-Feb-16 10:30N 46°37' E 031°52'5 9.2
2018-Feb-16 10:00N 46°36' E 031°46'6 9.1
2018-Feb-16 09:18N 46°35' E 031°36'3 9.1
2018-Feb-16 09:00N 46°35' E 031°33'4 6.9
2018-Feb-16 08:30N 46°35' E 031°28'5 6.6
2018-Feb-16 07:47N 46°35' E 031°21'13 7.9
2018-Feb-16 06:07N 46°34' E 031°02'1 6.0
2018-Feb-16 06:00N 46°34' E 031°01'3 6.1
2018-Feb-16 05:27N 46°31' E 030°57'3 6.4
2018-Feb-16 05:00N 46°29' E 030°57'5 6.3
2018-Feb-16 04:17N 46°25' E 031°00'  

Dump ship's entire track history